Time;durP1;ratioP1;P1;durP2;ratioP2;P2;SDS_P1;SDS_P2;PMS_P1;PMS_P2;Temp;Humidity;BMP_temperature;BMP_pressure;BME280_temperature;BME280_humidity;BME280_pressure;Samples;Min_cycle;Max_cycle;Signal;HPM_P1;HPM_P2
2022/02/28 00:00:48;;;;;;;20.58;12.38;;;6.90;99.90;;;;;;4973902;28;20048;-76
2022/02/28 00:03:13;;;;;;;23.98;13.57;;;6.80;99.90;;;;;;4992027;28;20477;-76
2022/02/28 00:05:39;;;;;;;18.05;12.75;;;6.80;99.90;;;;;;4991829;28;20026;-76
2022/02/28 00:08:05;;;;;;;20.25;14.05;;;6.80;99.90;;;;;;4991864;28;20129;-76
2022/02/28 00:10:31;;;;;;;16.23;11.60;;;6.80;99.90;;;;;;4989252;28;20099;-77
2022/02/28 00:12:57;;;;;;;15.40;11.50;;;6.70;99.90;;;;;;4990547;28;20129;-75
2022/02/28 00:15:23;;;;;;;22.42;13.80;;;6.70;99.90;;;;;;4974101;28;20030;-76
2022/02/28 00:17:49;;;;;;;17.90;12.50;;;6.70;99.90;;;;;;4973657;28;20030;-76
2022/02/28 00:20:16;;;;;;;20.60;12.98;;;6.70;99.90;;;;;;4991872;28;20053;-76
2022/02/28 00:22:42;;;;;;;20.73;14.15;;;6.60;99.90;;;;;;4983462;28;20047;-75
2022/02/28 00:25:10;;;;;;;24.08;14.35;;;6.70;99.90;;;;;;4973824;28;20061;-76
2022/02/28 00:27:36;;;;;;;19.15;13.98;;;6.70;99.90;;;;;;4992736;28;20033;-76
2022/02/28 00:30:06;;;;;;;17.90;11.85;;;6.70;99.90;;;;;;4973377;28;20030;-76
2022/02/28 00:32:32;;;;;;;24.80;12.77;;;6.70;99.90;;;;;;4991101;28;20649;-75
2022/02/28 00:34:58;;;;;;;21.05;13.75;;;6.70;99.90;;;;;;4991103;28;20121;-76
2022/02/28 00:37:23;;;;;;;19.48;13.63;;;6.70;99.90;;;;;;4990049;28;20030;-75
2022/02/28 00:39:49;;;;;;;21.90;13.38;;;6.60;99.90;;;;;;4973186;28;20029;-75
2022/02/28 00:42:15;;;;;;;17.05;12.48;;;6.60;99.90;;;;;;4991246;28;20456;-75
2022/02/28 00:44:42;;;;;;;18.73;13.82;;;6.60;99.90;;;;;;4973568;28;20468;-76
2022/02/28 00:47:08;;;;;;;15.43;11.52;;;6.60;99.90;;;;;;4991318;28;20190;-75
2022/02/28 00:49:34;;;;;;;17.75;12.77;;;6.60;99.90;;;;;;4971843;28;20133;-76
2022/02/28 00:52:00;;;;;;;17.52;12.30;;;6.50;99.90;;;;;;4991069;28;20030;-76
2022/02/28 00:54:27;;;;;;;15.20;12.82;;;6.60;99.90;;;;;;4990979;28;20169;-76
2022/02/28 00:56:55;;;;;;;23.30;13.63;;;6.60;99.90;;;;;;4973604;28;20058;-76
2022/02/28 00:59:20;;;;;;;21.70;13.10;;;6.60;99.90;;;;;;4990743;28;20026;-76
2022/02/28 01:01:46;;;;;;;23.98;14.10;;;6.50;99.90;;;;;;4986007;28;20441;-77
2022/02/28 01:04:12;;;;;;;19.40;12.75;;;6.50;99.90;;;;;;4978147;28;20628;-76
2022/02/28 01:06:38;;;;;;;20.95;12.18;;;6.50;99.90;;;;;;4977286;28;20031;-75
2022/02/28 01:09:04;;;;;;;21.67;14.18;;;6.50;99.90;;;;;;4959445;28;20038;-76
2022/02/28 01:11:30;;;;;;;21.38;12.23;;;6.50;99.90;;;;;;4962648;28;20040;-76
2022/02/28 01:13:57;;;;;;;18.10;12.95;;;6.50;99.90;;;;;;4987265;28;20022;-75
2022/02/28 01:16:24;;;;;;;14.18;11.85;;;6.40;99.90;;;;;;4986029;28;20022;-76
2022/02/28 01:18:50;;;;;;;14.07;10.27;;;6.40;99.90;;;;;;4988996;28;20042;-76
2022/02/28 01:21:16;;;;;;;20.88;13.40;;;6.50;99.90;;;;;;4971253;28;20030;-75
2022/02/28 01:23:43;;;;;;;20.55;13.38;;;6.40;99.90;;;;;;4984837;28;20091;-76
2022/02/28 01:26:09;;;;;;;19.45;12.40;;;6.40;99.90;;;;;;4967049;28;20034;-76
2022/02/28 01:28:35;;;;;;;20.63;13.32;;;6.50;99.90;;;;;;4988713;28;20031;-76
2022/02/28 01:31:01;;;;;;;17.83;12.88;;;6.50;99.90;;;;;;4967799;28;20029;-76
2022/02/28 01:33:28;;;;;;;17.98;10.10;;;6.50;99.90;;;;;;4970189;28;20201;-76
2022/02/28 01:35:54;;;;;;;16.63;11.88;;;6.50;99.90;;;;;;4965854;28;20018;-77
2022/02/28 01:38:20;;;;;;;17.80;12.95;;;6.40;99.90;;;;;;4971173;28;20030;-76
2022/02/28 01:40:46;;;;;;;19.80;13.25;;;6.40;99.90;;;;;;4968494;28;21900;-77
2022/02/28 01:43:11;;;;;;;14.57;11.77;;;6.40;99.90;;;;;;4969381;28;20042;-76
2022/02/28 01:45:37;;;;;;;21.13;13.07;;;6.40;99.90;;;;;;4987389;28;20093;-75
2022/02/28 01:48:03;;;;;;;17.50;12.60;;;6.40;99.90;;;;;;4983549;28;20433;-75
2022/02/28 01:50:29;;;;;;;22.55;11.80;;;6.40;99.90;;;;;;4987779;28;20473;-76
2022/02/28 01:52:55;;;;;;;17.50;12.27;;;6.40;99.90;;;;;;4981532;28;20117;-76
2022/02/28 01:55:23;;;;;;;13.23;11.30;;;6.40;99.90;;;;;;4987577;28;20193;-76
2022/02/28 01:57:50;;;;;;;24.42;12.63;;;6.40;99.90;;;;;;4985537;28;20029;-76
2022/02/28 02:00:19;;;;;;;15.85;12.25;;;6.40;99.90;;;;;;4988595;28;20453;-76
2022/02/28 02:02:46;;;;;;;21.85;13.45;;;6.40;99.90;;;;;;4986247;28;20030;-76
2022/02/28 02:05:12;;;;;;;20.55;14.43;;;6.40;99.90;;;;;;4987403;28;20038;-76
2022/02/28 02:07:38;;;;;;;23.40;13.68;;;6.40;99.90;;;;;;4984968;28;20030;-76
2022/02/28 02:10:07;;;;;;;22.38;12.43;;;6.40;99.90;;;;;;4984282;28;20412;-77
2022/02/28 02:12:33;;;;;;;14.23;9.73;;;6.40;99.90;;;;;;4965018;28;20030;-76
2022/02/28 02:15:00;;;;;;;21.23;12.07;;;6.50;99.90;;;;;;4985825;28;20026;-76
2022/02/28 02:17:26;;;;;;;21.23;14.95;;;6.50;99.90;;;;;;4987518;28;20081;-76
2022/02/28 02:19:54;;;;;;;19.17;11.90;;;6.50;99.90;;;;;;4987770;28;20030;-75
2022/02/28 02:22:22;;;;;;;17.83;11.85;;;6.40;99.90;;;;;;4969812;28;20031;-75
2022/02/28 02:24:49;;;;;;;15.85;13.55;;;6.50;99.90;;;;;;4984363;28;20033;-75
2022/02/28 02:27:14;;;;;;;16.67;12.63;;;6.50;99.90;;;;;;4987185;28;20535;-76
2022/02/28 02:29:40;;;;;;;19.15;11.77;;;6.40;99.90;;;;;;4987056;28;20045;-75
2022/02/28 02:32:08;;;;;;;16.73;13.65;;;6.40;99.90;;;;;;4965482;28;20105;-75
2022/02/28 02:34:34;;;;;;;20.35;12.80;;;6.40;99.90;;;;;;4970795;28;20018;-76
2022/02/28 02:37:00;;;;;;;21.85;13.57;;;6.40;99.90;;;;;;4967610;28;20504;-76
2022/02/28 02:39:25;;;;;;;20.60;13.95;;;6.40;99.90;;;;;;4974472;28;20026;-76
2022/02/28 02:41:53;;;;;;;19.52;12.32;;;6.40;99.90;;;;;;4989636;28;20027;-76
2022/02/28 02:44:19;;;;;;;19.02;13.18;;;6.40;99.90;;;;;;4970921;28;20175;-74
2022/02/28 02:46:50;;;;;;;14.80;10.23;;;6.40;99.90;;;;;;4989629;28;20074;-74
2022/02/28 02:49:16;;;;;;;18.75;10.02;;;6.50;99.90;;;;;;4976960;28;20033;-74
2022/02/28 02:51:43;;;;;;;15.52;10.27;;;6.50;99.90;;;;;;4981437;28;20030;-74
2022/02/28 02:54:09;;;;;;;21.90;12.82;;;6.50;99.90;;;;;;4995491;28;20054;-74
2022/02/28 02:56:36;;;;;;;15.52;11.40;;;6.40;99.90;;;;;;4993646;28;20029;-74
2022/02/28 02:59:04;;;;;;;24.65;13.23;;;6.40;99.90;;;;;;4996990;28;20421;-75
2022/02/28 03:01:30;;;;;;;16.73;13.10;;;6.30;99.90;;;;;;4992498;28;20027;-74
2022/02/28 03:03:56;;;;;;;19.15;13.43;;;6.40;99.90;;;;;;4968915;28;20049;-74
2022/02/28 03:06:23;;;;;;;13.70;10.65;;;6.50;99.90;;;;;;4987442;28;20481;-75
2022/02/28 03:08:49;;;;;;;19.38;12.77;;;6.40;99.90;;;;;;4970778;28;20469;-74
2022/02/28 03:11:14;;;;;;;20.13;12.80;;;6.50;99.90;;;;;;4990665;28;20035;-74
2022/02/28 03:13:40;;;;;;;19.70;11.90;;;6.50;99.90;;;;;;4968758;28;20034;-75
2022/02/28 03:16:06;;;;;;;17.23;13.00;;;6.50;99.90;;;;;;4984711;28;20076;-74
2022/02/28 03:18:32;;;;;;;23.27;12.38;;;6.50;99.90;;;;;;4985730;28;20432;-74
2022/02/28 03:20:57;;;;;;;16.85;12.43;;;6.40;99.90;;;;;;4975577;28;20026;-73
2022/02/28 03:23:25;;;;;;;18.75;11.65;;;6.50;99.90;;;;;;4970771;28;20088;-74
2022/02/28 03:25:51;;;;;;;19.30;12.70;;;6.40;99.90;;;;;;4991416;28;20049;-75
2022/02/28 03:28:17;;;;;;;18.17;11.18;;;6.40;99.90;;;;;;4987967;28;20424;-75
2022/02/28 03:30:43;;;;;;;19.30;12.38;;;6.50;99.90;;;;;;4974221;28;20026;-75
2022/02/28 03:33:09;;;;;;;25.85;15.25;;;6.40;99.90;;;;;;4972230;28;20045;-73
2022/02/28 03:35:35;;;;;;;16.50;12.10;;;6.40;99.90;;;;;;4992300;28;20019;-73
2022/02/28 03:38:01;;;;;;;14.43;10.95;;;6.40;99.90;;;;;;4989472;28;20030;-73
2022/02/28 03:40:27;;;;;;;21.38;13.68;;;6.40;99.90;;;;;;4982627;28;20109;-73
2022/02/28 03:42:53;;;;;;;22.15;12.57;;;6.40;99.90;;;;;;4987031;28;20443;-73
2022/02/28 03:45:19;;;;;;;22.52;11.68;;;6.50;99.90;;;;;;4970903;28;20034;-75
2022/02/28 03:47:45;;;;;;;16.75;12.40;;;6.50;99.90;;;;;;4971863;28;20030;-74
2022/02/28 03:50:11;;;;;;;17.83;12.52;;;6.50;99.90;;;;;;4987627;28;20113;-73
2022/02/28 03:52:36;;;;;;;21.27;12.75;;;6.50;99.90;;;;;;4972156;28;20437;-74
2022/02/28 03:55:03;;;;;;;16.67;12.00;;;6.50;99.90;;;;;;4972845;28;20105;-74
2022/02/28 03:57:29;;;;;;;25.45;13.70;;;6.40;99.90;;;;;;4972551;28;20027;-74
2022/02/28 03:59:55;;;;;;;18.50;13.13;;;6.40;99.90;;;;;;4981008;28;20022;-74
2022/02/28 04:02:20;;;;;;;23.58;14.23;;;6.40;99.90;;;;;;4985130;28;20669;-74
2022/02/28 04:04:46;;;;;;;18.55;14.50;;;6.40;99.90;;;;;;4988144;28;20034;-74
2022/02/28 04:07:12;;;;;;;22.42;12.43;;;6.40;99.90;;;;;;4983676;28;20034;-74
2022/02/28 04:09:39;;;;;;;18.83;13.55;;;6.40;99.90;;;;;;4992897;28;20030;-74
2022/02/28 04:12:06;;;;;;;18.73;13.57;;;6.40;99.90;;;;;;4978721;28;20037;-74
2022/02/28 04:14:32;;;;;;;17.63;13.48;;;6.30;99.90;;;;;;4995179;28;20148;-74
2022/02/28 04:16:58;;;;;;;18.95;14.07;;;6.30;99.90;;;;;;4992464;28;20030;-74
2022/02/28 04:19:24;;;;;;;17.10;13.65;;;6.30;99.90;;;;;;4992103;28;20373;-74
2022/02/28 04:21:50;;;;;;;19.10;14.27;;;6.30;99.90;;;;;;4987689;28;20142;-75
2022/02/28 04:24:16;;;;;;;20.25;14.25;;;6.20;99.90;;;;;;4988809;28;20444;-73
2022/02/28 04:26:44;;;;;;;17.88;14.13;;;6.30;99.90;;;;;;4972565;28;20027;-74
2022/02/28 04:29:10;;;;;;;20.58;14.60;;;6.30;99.90;;;;;;4966863;28;20069;-75
2022/02/28 04:31:36;;;;;;;19.13;14.55;;;6.30;99.90;;;;;;4990090;28;20078;-75
2022/02/28 04:34:02;;;;;;;18.75;12.98;;;6.30;99.90;;;;;;4972044;28;20027;-74
2022/02/28 04:36:28;;;;;;;18.38;13.38;;;6.30;99.90;;;;;;4965891;28;20439;-75
2022/02/28 04:38:54;;;;;;;17.55;13.05;;;6.20;99.90;;;;;;4984575;28;20105;-74
2022/02/28 04:41:19;;;;;;;21.65;14.38;;;6.20;99.90;;;;;;4972002;28;20049;-73
2022/02/28 04:43:45;;;;;;;16.67;12.85;;;6.10;99.90;;;;;;4986720;28;20057;-74
2022/02/28 04:46:11;;;;;;;19.77;12.20;;;6.00;99.90;;;;;;4985378;28;20026;-74
2022/02/28 04:48:37;;;;;;;15.40;12.50;;;5.90;99.90;;;;;;4989499;28;20057;-75
2022/02/28 04:51:03;;;;;;;19.65;12.48;;;5.80;99.90;;;;;;4985767;28;20476;-74
2022/02/28 04:53:29;;;;;;;24.45;13.45;;;5.80;99.90;;;;;;4987088;28;20077;-74
2022/02/28 04:55:58;;;;;;;18.20;13.02;;;6.10;99.90;;;;;;4986144;28;20018;-74
2022/02/28 04:58:24;;;;;;;19.13;14.80;;;6.10;99.90;;;;;;4968315;28;20046;-74
2022/02/28 05:00:50;;;;;;;22.30;14.27;;;6.10;99.90;;;;;;4992086;28;20441;-74
2022/02/28 05:03:15;;;;;;;20.90;12.15;;;6.20;99.90;;;;;;4988894;28;20072;-73
2022/02/28 05:05:41;;;;;;;17.08;13.02;;;6.30;99.90;;;;;;4971706;28;20114;-74
2022/02/28 05:08:07;;;;;;;17.33;12.43;;;6.30;99.90;;;;;;4989497;28;20041;-74
2022/02/28 05:10:33;;;;;;;18.15;14.05;;;6.40;99.90;;;;;;4967334;28;20105;-74
2022/02/28 05:12:59;;;;;;;16.92;13.13;;;6.30;99.90;;;;;;4989229;28;20034;-75
2022/02/28 05:15:24;;;;;;;19.48;13.57;;;6.40;99.90;;;;;;4972114;28;20023;-75
2022/02/28 05:17:50;;;;;;;21.45;11.95;;;6.30;99.90;;;;;;4971568;28;20087;-75
2022/02/28 05:20:18;;;;;;;19.42;14.40;;;6.30;99.90;;;;;;4986245;28;20034;-75
2022/02/28 05:22:44;;;;;;;18.45;13.05;;;6.20;99.90;;;;;;4984751;28;20092;-73
2022/02/28 05:25:10;;;;;;;21.02;14.10;;;6.10;99.90;;;;;;4980726;28;20034;-75
2022/02/28 05:27:42;;;;;;;18.50;13.52;;;6.10;99.90;;;;;;4988662;28;20022;-74
2022/02/28 05:30:10;;;;;;;17.65;13.07;;;6.20;99.90;;;;;;4965102;28;20035;-74
2022/02/28 05:32:37;;;;;;;28.00;15.15;;;6.10;99.90;;;;;;4967699;28;20041;-75
2022/02/28 05:35:03;;;;;;;19.42;14.00;;;6.00;99.90;;;;;;4971542;28;20026;-74
2022/02/28 05:37:28;;;;;;;26.48;14.65;;;6.00;99.90;;;;;;4985997;28;20030;-75
2022/02/28 05:39:54;;;;;;;17.80;12.60;;;5.90;99.90;;;;;;4985547;28;20097;-75
2022/02/28 05:42:20;;;;;;;19.75;14.52;;;5.90;99.90;;;;;;4986541;28;20440;-74
2022/02/28 05:44:46;;;;;;;22.30;13.95;;;5.90;99.90;;;;;;4967245;28;20026;-75
2022/02/28 05:47:12;;;;;;;21.77;14.80;;;5.80;99.90;;;;;;4986315;28;20034;-74
2022/02/28 05:49:37;;;;;;;19.63;13.32;;;5.80;99.90;;;;;;4981066;28;20026;-74
2022/02/28 05:52:03;;;;;;;24.52;15.60;;;5.80;99.90;;;;;;4980785;28;20080;-76
2022/02/28 05:54:31;;;;;;;19.35;13.90;;;5.80;99.90;;;;;;4966990;28;20041;-75
2022/02/28 05:56:57;;;;;;;18.88;14.27;;;5.80;99.90;;;;;;4982367;28;20026;-75
2022/02/28 05:59:23;;;;;;;17.80;11.05;;;5.90;99.90;;;;;;4965006;28;20018;-75
2022/02/28 06:01:48;;;;;;;20.40;13.00;;;5.80;99.90;;;;;;4985190;28;20038;-76
2022/02/28 06:04:14;;;;;;;23.48;13.68;;;5.80;99.90;;;;;;4987193;28;20030;-74
2022/02/28 06:06:40;;;;;;;22.70;15.02;;;5.70;99.90;;;;;;4971114;28;20381;-76
2022/02/28 06:09:06;;;;;;;21.80;15.98;;;5.70;99.90;;;;;;4974866;28;20121;-75
2022/02/28 06:11:32;;;;;;;23.20;13.07;;;5.70;99.90;;;;;;4987345;28;20030;-74
2022/02/28 06:13:58;;;;;;;22.92;14.52;;;5.60;99.90;;;;;;4986617;28;20062;-74
2022/02/28 06:16:24;;;;;;;15.05;12.23;;;5.60;99.90;;;;;;4992000;28;20393;-75
2022/02/28 06:18:50;;;;;;;18.20;12.63;;;5.60;99.90;;;;;;4969182;28;20030;-75
2022/02/28 06:21:16;;;;;;;18.02;12.77;;;5.60;99.90;;;;;;4986178;28;20455;-76
2022/02/28 06:23:42;;;;;;;18.98;11.13;;;5.60;99.90;;;;;;4987136;28;20084;-74
2022/02/28 06:26:09;;;;;;;24.25;14.63;;;5.60;99.90;;;;;;4987637;28;20050;-75
2022/02/28 06:28:35;;;;;;;16.02;12.55;;;5.70;99.90;;;;;;4991425;28;20034;-76
2022/02/28 06:31:01;;;;;;;25.13;15.07;;;5.70;99.90;;;;;;4972584;28;20030;-76
2022/02/28 06:33:27;;;;;;;23.08;16.98;;;5.70;99.90;;;;;;4991933;28;20404;-75
2022/02/28 06:35:53;;;;;;;20.23;13.88;;;5.70;99.90;;;;;;4992640;28;20026;-76
2022/02/28 06:38:20;;;;;;;23.35;13.05;;;5.70;99.90;;;;;;4979955;28;20498;-76
2022/02/28 06:40:47;;;;;;;25.30;15.75;;;5.70;99.90;;;;;;4973210;28;20042;-76
2022/02/28 06:43:17;;;;;;;17.92;13.93;;;5.70;99.90;;;;;;4990544;28;20361;-76
2022/02/28 06:45:43;;;;;;;20.77;15.93;;;5.70;99.90;;;;;;4991282;28;20022;-77
2022/02/28 06:48:10;;;;;;;21.95;13.80;;;5.70;99.90;;;;;;4992926;28;20022;-79
2022/02/28 06:50:36;;;;;;;23.70;15.98;;;5.80;99.90;;;;;;4976998;28;20117;-76
2022/02/28 06:53:02;;;;;;;23.80;14.50;;;5.80;99.90;;;;;;4970555;28;20064;-77
2022/02/28 06:55:28;;;;;;;27.02;14.25;;;5.80;99.90;;;;;;4970140;28;20162;-75
2022/02/28 06:57:54;;;;;;;16.85;13.77;;;5.90;99.90;;;;;;4972877;28;20043;-76
2022/02/28 07:00:19;;;;;;;23.20;13.80;;;5.90;99.90;;;;;;4975570;28;20117;-77
2022/02/28 07:02:45;;;;;;;19.17;15.02;;;6.00;99.90;;;;;;4987619;28;20153;-75
2022/02/28 07:05:11;;;;;;;21.17;13.63;;;6.10;99.90;;;;;;4984265;28;20042;-75
2022/02/28 07:07:37;;;;;;;20.33;13.05;;;6.20;99.90;;;;;;4996587;28;20026;-76
2022/02/28 07:10:09;;;;;;;17.52;11.98;;;6.20;99.90;;;;;;4990086;28;20071;-75
2022/02/28 07:12:35;;;;;;;20.02;12.98;;;6.30;99.90;;;;;;4991389;28;20034;-76
2022/02/28 07:15:01;;;;;;;18.33;13.07;;;6.40;99.90;;;;;;4985824;28;20031;-74
2022/02/28 07:17:27;;;;;;;22.17;15.60;;;6.60;99.90;;;;;;4966350;28;20026;-75
2022/02/28 07:19:53;;;;;;;15.95;13.35;;;6.70;99.90;;;;;;4987483;28;20065;-75
2022/02/28 07:22:19;;;;;;;17.52;10.90;;;6.70;99.90;;;;;;4990610;28;20068;-76
2022/02/28 07:24:45;;;;;;;14.80;10.15;;;6.70;99.90;;;;;;4985838;28;20105;-75
2022/02/28 07:27:10;;;;;;;19.77;11.88;;;6.70;99.90;;;;;;4990949;28;20042;-76
2022/02/28 07:29:36;;;;;;;15.02;12.27;;;6.70;99.90;;;;;;4974597;28;20033;-76
2022/02/28 07:32:02;;;;;;;20.08;13.70;;;6.70;99.90;;;;;;4980904;28;20033;-76
2022/02/28 07:34:29;;;;;;;21.77;14.30;;;6.60;99.90;;;;;;4988092;28;20022;-68
2022/02/28 07:36:54;;;;;;;18.63;13.80;;;6.70;99.90;;;;;;4983153;28;20074;-68
2022/02/28 07:39:20;;;;;;;19.15;13.82;;;6.70;99.90;;;;;;4967574;28;20031;-68
2022/02/28 07:41:47;;;;;;;18.75;13.65;;;6.80;99.90;;;;;;4990425;28;20512;-68
2022/02/28 07:44:13;;;;;;;20.40;15.10;;;6.90;99.90;;;;;;4992025;28;20054;-68
2022/02/28 07:46:40;;;;;;;16.23;12.32;;;6.90;99.90;;;;;;4989152;28;20416;-67
2022/02/28 07:49:06;;;;;;;19.92;12.55;;;6.90;99.90;;;;;;4969821;28;20031;-68
2022/02/28 07:51:32;;;;;;;21.98;14.57;;;6.90;99.90;;;;;;4987811;28;20406;-65
2022/02/28 07:53:57;;;;;;;18.70;14.13;;;7.10;99.90;;;;;;4986981;28;20034;-68
2022/02/28 07:56:23;;;;;;;23.08;15.18;;;7.10;99.90;;;;;;4986858;28;20523;-67
2022/02/28 07:58:49;;;;;;;23.25;15.25;;;7.20;99.90;;;;;;4993735;28;20098;-68
2022/02/28 08:01:15;;;;;;;20.65;14.50;;;7.30;99.90;;;;;;4987104;28;20033;-67
2022/02/28 08:03:41;;;;;;;19.10;11.57;;;7.20;99.90;;;;;;4984533;28;20027;-68
2022/02/28 08:06:06;;;;;;;26.42;13.52;;;7.20;99.90;;;;;;4991268;28;20026;-68
2022/02/28 08:08:32;;;;;;;17.98;13.10;;;7.10;99.90;;;;;;4989289;28;20026;-66
2022/02/28 08:10:58;;;;;;;16.10;11.88;;;7.20;99.90;;;;;;4990008;28;20118;-67
2022/02/28 08:13:24;;;;;;;20.70;11.20;;;7.30;99.90;;;;;;4985410;28;20112;-67
2022/02/28 08:15:50;;;;;;;12.82;10.82;;;7.30;99.90;;;;;;4982933;28;20122;-66
2022/02/28 08:18:16;;;;;;;17.33;13.32;;;7.30;99.90;;;;;;4986539;28;20088;-67
2022/02/28 08:20:42;;;;;;;22.85;13.93;;;7.40;99.90;;;;;;4982898;28;20337;-66
2022/02/28 08:23:08;;;;;;;19.63;13.73;;;7.50;99.90;;;;;;4968000;28;20137;-67
2022/02/28 08:25:33;;;;;;;22.08;14.13;;;7.40;99.90;;;;;;4983859;28;20114;-67
2022/02/28 08:28:00;;;;;;;17.15;13.00;;;7.50;99.90;;;;;;4966145;28;20121;-67
2022/02/28 08:30:25;;;;;;;19.77;14.55;;;7.60;99.90;;;;;;4984516;28;20126;-67
2022/02/28 08:32:53;;;;;;;21.92;14.98;;;7.60;99.90;;;;;;4974415;28;20160;-66
2022/02/28 08:35:19;;;;;;;24.27;14.52;;;7.60;99.90;;;;;;4992103;28;20106;-65
2022/02/28 08:37:46;;;;;;;25.83;15.57;;;7.70;99.90;;;;;;4989850;28;20023;-66
2022/02/28 08:40:13;;;;;;;18.08;14.63;;;7.80;99.90;;;;;;4970015;28;20062;-67
2022/02/28 08:42:38;;;;;;;19.13;13.35;;;8.00;99.90;;;;;;4992063;28;20484;-67
2022/02/28 08:45:05;;;;;;;19.63;13.90;;;8.00;99.90;;;;;;4991178;28;20037;-67
2022/02/28 08:47:32;;;;;;;17.95;12.75;;;7.80;99.90;;;;;;4972454;28;20022;-67
2022/02/28 08:50:00;;;;;;;19.67;12.88;;;7.80;99.90;;;;;;4985857;28;20464;-67
2022/02/28 08:52:26;;;;;;;20.75;13.45;;;7.80;99.90;;;;;;4986006;28;20023;-67
2022/02/28 08:54:52;;;;;;;17.33;13.10;;;7.70;99.90;;;;;;4984397;28;20393;-67
2022/02/28 08:57:20;;;;;;;22.17;13.13;;;7.60;99.90;;;;;;4967189;28;20030;-67
2022/02/28 08:59:46;;;;;;;16.85;11.10;;;7.70;99.90;;;;;;4986218;28;20022;-67
2022/02/28 09:02:11;;;;;;;15.70;11.95;;;7.80;99.90;;;;;;4988786;28;20400;-67
2022/02/28 09:04:37;;;;;;;17.83;12.18;;;7.80;99.90;;;;;;4991915;28;20057;-68
2022/02/28 09:07:03;;;;;;;13.10;10.18;;;7.80;99.90;;;;;;4968912;28;20451;-66
2022/02/28 09:09:29;;;;;;;20.23;12.20;;;7.70;99.90;;;;;;4990329;28;20732;-66
2022/02/28 09:11:55;;;;;;;21.67;11.50;;;7.60;99.90;;;;;;4962053;28;20173;-67
2022/02/28 09:14:21;;;;;;;22.05;13.52;;;7.70;99.90;;;;;;4985623;28;20034;-66
2022/02/28 09:16:47;;;;;;;17.67;12.95;;;7.70;99.90;;;;;;4988957;28;20022;-67
2022/02/28 09:19:12;;;;;;;16.80;11.00;;;7.80;99.90;;;;;;4990186;28;20497;-67
2022/02/28 09:21:39;;;;;;;15.75;10.98;;;7.90;99.90;;;;;;4977660;28;20084;-67
2022/02/28 09:24:06;;;;;;;16.23;11.00;;;8.00;99.90;;;;;;4990682;28;20022;-67
2022/02/28 09:26:32;;;;;;;21.73;12.23;;;8.00;99.90;;;;;;4989720;28;20022;-68
2022/02/28 09:28:58;;;;;;;18.00;11.52;;;8.20;99.90;;;;;;4968566;28;20030;-67
2022/02/28 09:31:23;;;;;;;17.05;12.52;;;8.20;99.90;;;;;;4984096;28;20109;-69
2022/02/28 09:33:49;;;;;;;21.35;11.13;;;8.30;99.90;;;;;;4989831;28;20045;-68
2022/02/28 09:36:15;;;;;;;14.48;9.95;;;8.60;99.90;;;;;;4990405;28;20022;-67
2022/02/28 09:38:41;;;;;;;15.25;10.50;;;8.40;99.90;;;;;;4990681;28;20022;-67
2022/02/28 09:41:10;;;;;;;16.90;11.10;;;8.40;99.90;;;;;;4989627;28;20081;-67
2022/02/28 09:43:37;;;;;;;16.73;11.55;;;8.30;99.90;;;;;;4972586;28;20022;-66
2022/02/28 09:46:04;;;;;;;14.30;10.27;;;8.30;99.90;;;;;;4989322;28;20053;-68
2022/02/28 09:48:32;;;;;;;13.98;11.02;;;8.50;99.90;;;;;;4989732;28;20503;-67
2022/02/28 09:50:59;;;;;;;14.95;11.52;;;8.40;99.90;;;;;;4982383;28;20113;-68
2022/02/28 09:53:25;;;;;;;19.67;11.65;;;8.50;99.90;;;;;;4989361;28;20023;-67
2022/02/28 09:55:51;;;;;;;15.80;10.40;;;8.60;99.90;;;;;;4980443;28;20039;-67
2022/02/28 09:58:25;;;;;;;16.60;11.40;;;8.70;99.90;;;;;;4963481;28;20089;-67
2022/02/28 10:00:52;;;;;;;13.02;9.68;;;8.80;99.90;;;;;;4979014;28;20105;-66
2022/02/28 10:03:18;;;;;;;18.33;10.75;;;8.80;99.90;;;;;;4971053;28;20037;-67
2022/02/28 10:05:44;;;;;;;16.17;11.30;;;8.80;99.90;;;;;;4971626;28;20482;-65
2022/02/28 10:08:14;;;;;;;13.88;9.85;;;9.00;99.90;;;;;;4970752;28;20493;-67
2022/02/28 10:10:40;;;;;;;15.65;9.88;;;9.30;99.90;;;;;;4985882;28;20117;-66
2022/02/28 10:13:06;;;;;;;13.07;10.57;;;9.30;99.90;;;;;;4989712;28;20106;-67
2022/02/28 10:15:32;;;;;;;19.13;11.68;;;9.30;99.90;;;;;;4989448;28;20101;-65
2022/02/28 10:18:01;;;;;;;11.95;9.02;;;9.40;99.90;;;;;;4989859;28;20447;-64
2022/02/28 10:20:28;;;;;;;16.42;10.77;;;9.50;99.90;;;;;;4989304;28;20026;-70
2022/02/28 10:22:58;;;;;;;15.57;9.45;;;9.40;99.90;;;;;;4988810;28;20113;-68
2022/02/28 10:25:29;;;;;;;18.00;9.95;;;9.30;99.90;;;;;;4989681;28;20053;-67
2022/02/28 10:28:22;;;;;;;12.15;10.23;;;9.40;99.90;;;;;;4973093;28;20034;-67
2022/02/28 10:30:58;;;;;;;12.40;8.93;;;9.30;99.90;;;;;;4964842;28;20027;-68
2022/02/28 10:33:31;;;;;;;11.05;8.48;;;9.00;99.90;;;;;;4973301;28;20022;-67
2022/02/28 10:36:10;;;;;;;;;;;9.10;99.90;;;;;;4973951;28;20378;-67
2022/02/28 10:38:42;;;;;;;10.35;8.73;;;9.20;99.90;;;;;;4973320;28;19928;-68
2022/02/28 10:41:26;;;;;;;12.00;9.18;;;9.30;99.90;;;;;;4985224;28;20665;-72
2022/02/28 10:43:54;;;;;;;14.20;7.63;;;9.20;99.90;;;;;;4972101;28;20058;-70
2022/02/28 10:46:42;;;;;;;12.85;9.45;;;9.40;99.90;;;;;;4990448;28;20037;-69
2022/02/28 10:49:16;;;;;;;12.77;7.93;;;9.40;99.90;;;;;;4970535;28;21483;-69
2022/02/28 10:51:54;;;;;;;15.82;8.80;;;9.50;99.90;;;;;;4971491;28;20072;-69
2022/02/28 10:54:28;;;;;;;10.68;8.13;;;9.40;99.90;;;;;;4989397;28;20081;-68
2022/02/28 10:56:55;;;;;;;11.55;8.35;;;9.20;99.90;;;;;;4988101;28;20049;-68
2022/02/28 10:59:32;;;;;;;11.27;8.40;;;9.20;99.90;;;;;;4967045;28;20153;-68
2022/02/28 11:02:00;;;;;;;13.80;9.73;;;9.40;99.90;;;;;;4986732;28;20065;-71
2022/02/28 11:04:43;;;;;;;13.95;9.52;;;9.60;99.90;;;;;;4974276;28;20057;-67
2022/02/28 11:07:11;;;;;;;9.85;7.57;;;9.60;99.90;;;;;;4990596;28;20115;-68
2022/02/28 11:09:39;;;;;;;13.55;7.75;;;9.60;99.90;;;;;;4974325;28;20095;-67
2022/02/28 11:12:24;;;;;;;12.30;8.38;;;9.60;99.90;;;;;;4976205;28;20076;-66
2022/02/28 11:14:51;;;;;;;13.38;8.15;;;9.80;99.90;;;;;;4992500;28;20106;-70
2022/02/28 11:17:46;;;;;;;10.63;8.52;;;9.70;99.90;;;;;;4975323;28;20077;-67
2022/02/28 11:20:15;;;;;;;11.10;7.72;;;9.90;99.90;;;;;;4972504;28;20535;-69
2022/02/28 11:22:44;;;;;;;10.02;7.75;;;9.90;99.70;;;;;;4992851;28;20459;-67
2022/02/28 11:25:12;;;;;;;11.23;8.02;;;9.70;99.90;;;;;;4975194;28;20022;-65
2022/02/28 11:27:40;;;;;;;10.50;7.30;;;9.50;99.70;;;;;;4988123;28;20023;-68
2022/02/28 11:30:11;;;;;;;13.73;9.27;;;9.30;99.80;;;;;;4991635;28;20022;-69
2022/02/28 11:32:38;;;;;;;9.25;6.80;;;9.30;99.90;;;;;;4975327;28;20034;-69
2022/02/28 11:35:37;;;;;;;12.18;8.93;;;9.40;99.90;;;;;;4992521;28;20030;-67
2022/02/28 11:38:15;;;;;;;12.65;8.80;;;9.40;99.90;;;;;;4992590;28;20034;-70
2022/02/28 11:40:43;;;;;;;11.82;9.10;;;9.70;99.90;;;;;;4977658;28;20442;-67
2022/02/28 11:43:14;;;;;;;11.98;8.65;;;9.50;99.90;;;;;;4992755;28;20026;-67
2022/02/28 11:45:50;;;;;;;13.20;8.25;;;9.60;99.90;;;;;;4973393;28;20040;-67
2022/02/28 11:48:40;;;;;;;13.95;9.00;;;9.40;99.90;;;;;;4992612;28;20481;-70
2022/02/28 11:51:10;;;;;;;12.93;8.57;;;9.40;99.90;;;;;;4962216;28;20121;-72
2022/02/28 11:54:28;;;;;;;12.07;8.60;;;9.50;99.90;;;;;;4992575;28;20044;-69
2022/02/28 11:56:56;;;;;;;15.50;8.88;;;9.80;99.90;;;;;;4950324;28;20042;-68
2022/02/28 11:59:28;;;;;;;10.27;7.47;;;9.90;99.90;;;;;;4992038;28;20018;-67
2022/02/28 12:02:09;;;;;;;12.35;8.23;;;9.70;99.60;;;;;;4993077;28;20033;-68
2022/02/28 12:04:41;;;;;;;11.20;7.90;;;9.70;99.40;;;;;;4975410;28;20045;-67
2022/02/28 12:07:10;;;;;;;17.52;8.52;;;9.70;99.60;;;;;;4987225;28;20030;-69
2022/02/28 12:09:40;;;;;;;12.65;8.68;;;9.80;99.60;;;;;;4990487;28;20149;-66
2022/02/28 12:12:27;;;;;;;11.80;8.63;;;9.80;99.40;;;;;;4991036;28;20054;-68
2022/02/28 12:14:56;;;;;;;13.63;8.68;;;9.90;99.90;;;;;;4992275;28;20026;-69
2022/02/28 12:17:40;;;;;;;11.55;8.38;;;9.70;99.10;;;;;;4993898;28;20026;-67
2022/02/28 12:20:18;;;;;;;10.93;9.00;;;9.80;99.40;;;;;;4994011;28;20026;-67
2022/02/28 12:23:05;;;;;;;10.13;8.15;;;9.80;98.40;;;;;;5001384;28;20037;-67
2022/02/28 12:25:37;;;;;;;9.60;7.68;;;9.70;99.00;;;;;;4980423;28;20045;-71
2022/02/28 12:28:28;;;;;;;8.90;6.80;;;9.90;99.30;;;;;;4991949;28;20612;-67
2022/02/28 12:30:59;;;;;;;13.27;7.95;;;10.10;99.10;;;;;;4973140;28;20400;-67
2022/02/28 12:33:34;;;;;;;11.10;8.40;;;10.30;98.00;;;;;;4990624;28;20046;-68
2022/02/28 12:36:15;;;;;;;19.63;9.63;;;10.20;97.90;;;;;;4973975;28;20038;-67
2022/02/28 12:38:53;;;;;;;12.90;8.88;;;10.00;97.60;;;;;;4993667;28;20060;-69
2022/02/28 12:41:23;;;;;;;12.50;8.63;;;9.90;97.80;;;;;;4974867;28;20030;-68